createdAt,value
2018-08-23T00:00:01.810Z,46.60
2018-08-23T00:01:01.809Z,47.50
2018-08-23T00:02:01.804Z,48.90
2018-08-23T00:03:01.860Z,48.70
2018-08-23T00:04:01.808Z,47.30
2018-08-23T00:05:01.805Z,47.80
2018-08-23T00:06:01.611Z,50.40
2018-08-23T00:07:01.809Z,49.00
2018-08-23T00:08:01.369Z,47.50
2018-08-23T00:09:01.793Z,49.80
2018-08-23T00:10:01.823Z,48.10
2018-08-23T00:11:01.796Z,49.20
2018-08-23T00:12:01.797Z,50.00
2018-08-23T00:13:01.819Z,50.20
2018-08-23T00:14:01.806Z,49.00
2018-08-23T00:15:01.838Z,49.30
2018-08-23T00:16:01.799Z,48.40
2018-08-23T00:17:01.844Z,48.60
2018-08-23T00:18:01.072Z,48.20
2018-08-23T00:19:01.534Z,46.60
2018-08-23T00:20:01.618Z,49.70
2018-08-23T00:21:01.898Z,51.30
2018-08-23T00:22:01.849Z,47.40
2018-08-23T00:23:01.843Z,48.60
2018-08-23T00:24:01.837Z,48.20
2018-08-23T00:25:01.583Z,49.50
2018-08-23T00:26:01.819Z,48.60
2018-08-23T00:27:01.948Z,48.10
2018-08-23T00:28:01.790Z,47.70
2018-08-23T00:29:02.938Z,47.50
2018-08-23T00:30:01.798Z,46.80
2018-08-23T00:31:01.832Z,48.80
2018-08-23T00:32:01.834Z,48.70
2018-08-23T00:33:01.808Z,48.60
2018-08-23T00:34:01.827Z,48.10
2018-08-23T00:35:01.804Z,46.40
2018-08-23T00:36:01.826Z,49.90
2018-08-23T00:37:01.852Z,47.30
2018-08-23T00:38:01.306Z,48.20
2018-08-23T00:39:03.413Z,47.90
2018-08-23T00:40:01.594Z,46.20
2018-08-23T00:41:01.794Z,46.30
2018-08-23T00:42:01.854Z,49.10
2018-08-23T00:43:01.831Z,47.20
2018-08-23T00:44:01.572Z,47.40
2018-08-23T00:45:01.138Z,47.10
2018-08-23T00:46:01.536Z,46.40
2018-08-23T00:47:01.845Z,47.20
2018-08-23T00:48:01.848Z,47.00
2018-08-23T00:49:01.855Z,47.20
2018-08-23T00:50:01.845Z,46.20
2018-08-23T00:51:01.849Z,47.80
2018-08-23T00:52:01.599Z,47.20
2018-08-23T00:53:01.853Z,46.30
2018-08-23T00:54:01.899Z,46.90
2018-08-23T00:55:01.851Z,46.70
2018-08-23T00:56:01.604Z,47.30
2018-08-23T00:57:01.855Z,47.80
2018-08-23T00:58:01.830Z,47.10
2018-08-23T00:59:01.607Z,47.00
2018-08-23T01:00:01.627Z,47.80
2018-08-23T01:01:01.851Z,45.90
2018-08-23T01:02:01.841Z,47.20
2018-08-23T01:03:01.842Z,46.50
2018-08-23T01:04:01.859Z,48.10
2018-08-23T01:05:01.855Z,46.10
2018-08-23T01:06:01.847Z,46.40
2018-08-23T01:07:01.640Z,44.80
2018-08-23T01:08:01.833Z,46.10
2018-08-23T01:09:01.843Z,46.30
2018-08-23T01:10:01.819Z,47.30
2018-08-23T01:11:01.835Z,46.00
2018-08-23T01:12:01.845Z,45.70
2018-08-23T01:13:01.841Z,46.70
2018-08-23T01:14:01.841Z,48.30
2018-08-23T01:15:03.883Z,47.30
2018-08-23T01:16:01.568Z,47.40
2018-08-23T01:17:01.910Z,48.80
2018-08-23T01:18:01.565Z,47.60
2018-08-23T01:19:01.872Z,46.40
2018-08-23T01:20:01.597Z,46.40
2018-08-23T01:21:01.555Z,48.00
2018-08-23T01:22:01.572Z,48.60
2018-08-23T01:23:01.561Z,48.70
2018-08-23T01:24:01.581Z,46.70
2018-08-23T01:25:01.598Z,48.30
2018-08-23T01:26:01.609Z,47.40
2018-08-23T01:27:01.851Z,47.80
2018-08-23T01:28:01.875Z,49.30
2018-08-23T01:29:01.329Z,47.10
2018-08-23T01:30:01.812Z,48.20
2018-08-23T01:31:01.822Z,47.00
2018-08-23T01:32:01.333Z,46.50
2018-08-23T01:33:02.189Z,48.20
2018-08-23T01:34:01.846Z,46.80
2018-08-23T01:35:01.859Z,45.90
2018-08-23T01:36:01.829Z,48.00
2018-08-23T01:37:01.850Z,47.00
2018-08-23T01:38:01.323Z,48.60
2018-08-23T01:39:01.871Z,47.50
2018-08-23T01:40:01.832Z,46.90
2018-08-23T01:41:01.828Z,47.40
2018-08-23T01:42:01.344Z,45.30
2018-08-23T01:43:01.834Z,45.90
2018-08-23T01:44:01.836Z,46.40
2018-08-23T01:45:01.872Z,46.00
2018-08-23T01:46:01.608Z,45.60
2018-08-23T01:47:01.869Z,44.50
2018-08-23T01:48:01.600Z,45.00
2018-08-23T01:49:01.874Z,45.60
2018-08-23T01:50:01.875Z,46.10
2018-08-23T01:51:01.870Z,44.90
2018-08-23T01:52:01.836Z,45.30
2018-08-23T01:53:01.877Z,45.10
2018-08-23T01:54:01.599Z,44.40
2018-08-23T01:55:01.873Z,47.40
2018-08-23T01:56:01.594Z,44.90
2018-08-23T01:57:01.877Z,45.40
2018-08-23T01:58:01.881Z,46.00
2018-08-23T01:59:01.881Z,45.90
2018-08-23T02:00:01.879Z,45.90
2018-08-23T02:01:01.652Z,46.30
2018-08-23T02:02:01.876Z,46.30
2018-08-23T02:03:01.142Z,46.40
2018-08-23T02:04:01.876Z,46.40
2018-08-23T02:05:03.483Z,45.40
2018-08-23T02:06:01.636Z,44.60
2018-08-23T02:07:01.885Z,44.30
2018-08-23T02:08:01.889Z,45.10
2018-08-23T02:09:01.837Z,46.40
2018-08-23T02:10:01.861Z,44.40
2018-08-23T02:11:01.844Z,45.20
2018-08-23T02:12:01.837Z,42.70
2018-08-23T02:13:01.857Z,46.20
2018-08-23T02:14:01.834Z,44.50
2018-08-23T02:15:01.881Z,44.30
2018-08-23T02:16:01.642Z,44.90
2018-08-23T02:17:01.884Z,45.80
2018-08-23T02:18:01.885Z,45.20
2018-08-23T02:19:03.847Z,45.00
2018-08-23T02:20:01.880Z,47.50
2018-08-23T02:21:01.599Z,44.20
2018-08-23T02:22:01.615Z,46.30
2018-08-23T02:23:01.770Z,45.40
2018-08-23T02:24:03.440Z,46.80
2018-08-23T02:25:01.882Z,46.70
2018-08-23T02:26:01.846Z,46.40
2018-08-23T02:27:01.895Z,46.00
2018-08-23T02:28:01.120Z,46.50
2018-08-23T02:29:01.335Z,47.10
2018-08-23T02:30:01.843Z,47.40
2018-08-23T02:31:01.837Z,45.80
2018-08-23T02:32:01.370Z,45.40
2018-08-23T02:33:01.870Z,46.60
2018-08-23T02:34:01.643Z,47.00
2018-08-23T02:35:01.874Z,45.90
2018-08-23T02:36:02.211Z,46.80
2018-08-23T02:37:01.919Z,46.30
2018-08-23T02:38:01.852Z,47.50
2018-08-23T02:39:01.162Z,46.20
2018-08-23T02:40:01.839Z,47.20
2018-08-23T02:41:01.845Z,45.80
2018-08-23T02:42:03.862Z,47.30
2018-08-23T02:43:01.841Z,46.60
2018-08-23T02:44:01.578Z,45.00
2018-08-23T02:45:01.602Z,45.50
2018-08-23T02:46:01.349Z,47.60
2018-08-23T02:47:01.660Z,44.90
2018-08-23T02:48:01.646Z,47.20
2018-08-23T02:49:03.455Z,45.30
2018-08-23T02:50:01.626Z,45.50
2018-08-23T02:51:01.613Z,45.30
2018-08-23T02:52:03.862Z,45.80
2018-08-23T02:53:01.851Z,44.70
2018-08-23T02:54:02.176Z,45.30
2018-08-23T02:55:01.397Z,46.30
2018-08-23T02:56:01.884Z,45.80
2018-08-23T02:57:01.384Z,45.60
2018-08-23T02:58:01.881Z,45.70
2018-08-23T02:59:01.879Z,44.70
2018-08-23T03:00:01.885Z,44.90
2018-08-23T03:01:01.877Z,44.40
2018-08-23T03:02:01.884Z,47.30
2018-08-23T03:03:01.675Z,50.90
2018-08-23T03:04:01.861Z,51.70
2018-08-23T03:05:01.883Z,52.60
2018-08-23T03:06:01.858Z,53.80
2018-08-23T03:07:01.693Z,55.40
2018-08-23T03:08:01.863Z,53.10
2018-08-23T03:09:01.884Z,55.80
2018-08-23T03:10:01.881Z,57.00
2018-08-23T03:11:01.877Z,57.80
2018-08-23T03:12:01.687Z,57.10
2018-08-23T03:13:01.883Z,56.90
2018-08-23T03:14:01.905Z,52.40
2018-08-23T03:15:01.937Z,52.20
2018-08-23T03:16:01.721Z,49.50
2018-08-23T03:17:01.669Z,47.20
2018-08-23T03:18:01.658Z,49.50
2018-08-23T03:19:01.913Z,48.60
2018-08-23T03:20:01.063Z,49.40
2018-08-23T03:21:01.853Z,53.00
2018-08-23T03:22:01.863Z,56.10
2018-08-23T03:23:01.966Z,56.60
2018-08-23T03:24:01.666Z,53.30
2018-08-23T03:25:01.864Z,50.30
2018-08-23T03:26:01.886Z,50.10
2018-08-23T03:27:01.706Z,49.40
2018-08-23T03:28:03.433Z,48.40
2018-08-23T03:29:01.614Z,46.70
2018-08-23T03:30:01.664Z,46.80
2018-08-23T03:31:01.672Z,47.10
2018-08-23T03:32:01.870Z,47.50
2018-08-23T03:33:01.874Z,48.90
2018-08-23T03:34:01.675Z,49.70
2018-08-23T03:35:01.881Z,46.70
2018-08-23T03:36:01.691Z,46.40
2018-08-23T03:37:01.707Z,47.40
2018-08-23T03:38:02.213Z,44.40
2018-08-23T03:39:01.899Z,46.70
2018-08-23T03:40:01.879Z,48.80
2018-08-23T03:41:01.861Z,47.90
2018-08-23T03:42:01.925Z,49.50
2018-08-23T03:43:01.972Z,50.80
2018-08-23T03:44:01.675Z,50.70
2018-08-23T03:45:01.916Z,52.00
2018-08-23T03:46:01.201Z,51.40
2018-08-23T03:47:01.906Z,49.70
2018-08-23T03:48:01.689Z,51.70
2018-08-23T03:49:02.236Z,54.20
2018-08-23T03:50:01.635Z,51.30
2018-08-23T03:51:01.877Z,51.70
2018-08-23T03:52:01.664Z,52.00
2018-08-23T03:53:01.663Z,51.30
2018-08-23T03:54:01.636Z,54.10
2018-08-23T03:55:01.986Z,59.50
2018-08-23T03:56:02.937Z,59.80
2018-08-23T03:57:01.968Z,58.10
2018-08-23T03:58:01.712Z,57.80
2018-08-23T03:59:01.880Z,54.80
2018-08-23T04:00:01.716Z,53.30
2018-08-23T04:01:03.495Z,52.90
2018-08-23T04:02:01.671Z,52.00
2018-08-23T04:03:01.871Z,53.00
2018-08-23T04:04:01.868Z,51.70
2018-08-23T04:05:01.869Z,53.60
2018-08-23T04:06:01.872Z,53.40
2018-08-23T04:07:01.886Z,54.50
2018-08-23T04:08:03.500Z,52.60
2018-08-23T04:09:08.295Z,58.80
2018-08-23T04:10:07.692Z,61.30
2018-08-23T04:11:01.889Z,61.60
2018-08-23T04:12:03.507Z,62.50
2018-08-23T04:13:01.882Z,60.70
2018-08-23T04:14:03.532Z,62.10
2018-08-23T04:15:01.883Z,61.00
2018-08-23T04:16:02.359Z,58.20
2018-08-23T04:17:01.910Z,60.90
2018-08-23T04:19:01.958Z,59.30
2018-08-23T04:21:01.909Z,55.60
2018-08-23T04:22:01.616Z,53.60
2018-08-23T04:23:02.084Z,51.10
2018-08-23T04:24:01.430Z,53.90
2018-08-23T04:25:01.683Z,53.80
2018-08-23T04:26:01.891Z,58.40
2018-08-23T04:27:01.933Z,59.60
2018-08-23T04:28:01.904Z,61.80
2018-08-23T04:29:01.943Z,59.70
2018-08-23T04:30:01.931Z,61.90
2018-08-23T04:31:01.440Z,57.90
2018-08-23T04:32:01.427Z,60.90
2018-08-23T04:33:01.913Z,60.60
2018-08-23T04:34:01.891Z,61.20
2018-08-23T04:35:01.698Z,64.30
2018-08-23T04:36:01.947Z,57.60
2018-08-23T04:37:01.634Z,57.80
2018-08-23T04:38:01.939Z,58.70
2018-08-23T04:39:01.913Z,63.70
2018-08-23T04:40:01.913Z,61.30
2018-08-23T04:41:01.914Z,63.60
2018-08-23T04:42:01.988Z,64.20
2018-08-23T04:43:01.397Z,63.60
2018-08-23T04:44:01.396Z,63.70
2018-08-23T04:45:01.885Z,64.40
2018-08-23T04:46:01.394Z,62.30
2018-08-23T04:47:01.884Z,64.10
2018-08-23T04:48:01.913Z,64.50
2018-08-23T04:49:01.894Z,62.00
2018-08-23T04:50:01.646Z,62.10
2018-08-23T04:51:01.931Z,64.80
2018-08-23T04:52:01.976Z,61.40
2018-08-23T04:53:01.946Z,61.20
2018-08-23T04:54:01.932Z,62.80
2018-08-23T04:55:01.935Z,61.80
2018-08-23T04:56:01.687Z,61.60
2018-08-23T04:57:02.000Z,59.00
2018-08-23T04:58:01.729Z,58.90
2018-08-23T04:59:01.998Z,62.30
2018-08-23T05:00:01.974Z,57.70
2018-08-23T05:01:01.614Z,62.10
2018-08-23T05:02:01.950Z,59.10
2018-08-23T05:03:01.972Z,58.90
2018-08-23T05:04:01.976Z,58.10
2018-08-23T05:05:03.227Z,60.00
2018-08-23T05:06:01.703Z,61.90
2018-08-23T05:07:01.905Z,59.00
2018-08-23T05:08:01.921Z,58.10
2018-08-23T05:09:01.923Z,59.50
2018-08-23T05:10:01.980Z,57.10
2018-08-23T05:11:01.448Z,56.70
2018-08-23T05:12:01.931Z,58.00
2018-08-23T05:13:02.260Z,58.50
2018-08-23T05:14:02.277Z,60.00
2018-08-23T05:15:03.990Z,60.50
2018-08-23T05:16:01.976Z,60.40
2018-08-23T05:17:01.455Z,61.10
2018-08-23T05:18:02.240Z,60.80
2018-08-23T05:19:01.453Z,57.00
2018-08-23T05:20:01.744Z,58.00
2018-08-23T05:21:01.732Z,59.70
2018-08-23T05:22:01.972Z,59.00
2018-08-23T05:23:01.503Z,58.10
2018-08-23T05:24:01.968Z,57.50
2018-08-23T05:25:02.265Z,57.20
2018-08-23T05:26:01.911Z,59.30
2018-08-23T05:27:02.019Z,60.60
2018-08-23T05:28:01.617Z,63.00
2018-08-23T05:29:01.669Z,61.80
2018-08-23T05:30:01.913Z,60.10
2018-08-23T05:31:01.712Z,63.00
2018-08-23T05:32:01.464Z,62.50
2018-08-23T05:33:01.467Z,62.50
2018-08-23T05:34:01.917Z,63.70
2018-08-23T05:35:01.954Z,63.90
2018-08-23T05:36:01.740Z,64.40
2018-08-23T05:37:02.027Z,65.20
2018-08-23T05:38:01.912Z,62.60
2018-08-23T05:39:02.003Z,64.10
2018-08-23T05:40:01.955Z,62.90
2018-08-23T05:41:01.467Z,63.60
2018-08-23T05:42:01.908Z,60.20
2018-08-23T05:43:02.248Z,59.00
2018-08-23T05:44:01.416Z,60.00
2018-08-23T05:45:02.239Z,59.70
2018-08-23T05:46:01.462Z,60.30
2018-08-23T05:47:01.989Z,59.30
2018-08-23T05:48:01.940Z,58.50
2018-08-23T05:49:02.016Z,57.50
2018-08-23T05:50:02.158Z,58.70
2018-08-23T05:51:01.963Z,56.30
2018-08-23T05:52:03.508Z,60.70
2018-08-23T05:53:01.860Z,58.80
2018-08-23T05:54:01.456Z,60.30
2018-08-23T05:55:01.987Z,61.10
2018-08-23T05:56:01.990Z,59.60
2018-08-23T05:57:01.459Z,60.60
2018-08-23T05:58:01.971Z,61.00
2018-08-23T05:59:01.975Z,64.10
2018-08-23T06:00:01.968Z,61.90
2018-08-23T06:01:01.470Z,59.70
2018-08-23T06:02:01.083Z,60.70
2018-08-23T06:03:01.983Z,60.10
2018-08-23T06:04:01.468Z,58.70
2018-08-23T06:05:02.470Z,60.60
2018-08-23T06:06:01.925Z,58.80
2018-08-23T06:07:01.435Z,58.00
2018-08-23T06:08:01.727Z,55.10
2018-08-23T06:09:01.476Z,56.50
2018-08-23T06:10:01.729Z,56.10
2018-08-23T06:11:01.426Z,57.70
2018-08-23T06:12:03.516Z,59.00
2018-08-23T06:13:01.778Z,62.50
2018-08-23T06:14:03.497Z,61.10
2018-08-23T06:15:03.781Z,61.50
2018-08-23T06:16:01.618Z,60.30
2018-08-23T06:17:01.446Z,62.70
2018-08-23T06:18:01.708Z,59.00
2018-08-23T06:19:01.446Z,57.70
2018-08-23T06:20:01.112Z,57.40
2018-08-23T06:21:01.989Z,62.90
2018-08-23T06:22:01.435Z,61.80
2018-08-23T06:23:07.578Z,61.80
2018-08-23T06:24:01.422Z,64.50
2018-08-23T06:25:02.975Z,63.10
2018-08-23T06:26:01.449Z,63.80
2018-08-23T06:27:02.057Z,64.90
2018-08-23T06:28:03.526Z,64.50
2018-08-23T06:29:01.110Z,65.60
2018-08-23T06:30:01.443Z,66.00
2018-08-23T06:31:16.945Z,63.40
2018-08-23T06:32:01.437Z,63.60
2018-08-23T06:33:01.871Z,63.30
2018-08-23T06:34:02.541Z,63.20
2018-08-23T06:35:01.819Z,62.80
2018-08-23T06:37:04.500Z,63.70
2018-08-23T06:38:01.046Z,65.70
2018-08-23T06:39:03.264Z,61.00
2018-08-23T06:40:03.793Z,64.00
2018-08-23T06:41:03.572Z,62.80
2018-08-23T06:42:01.702Z,60.90
2018-08-23T06:43:03.898Z,65.20
2018-08-23T06:44:03.776Z,63.40
2018-08-23T06:45:03.953Z,59.40
2018-08-23T06:46:02.039Z,64.40
2018-08-23T06:47:01.585Z,64.10
2018-08-23T06:48:03.536Z,61.50
2018-08-23T06:49:02.007Z,63.50
2018-08-23T06:50:01.997Z,63.50
2018-08-23T06:51:01.865Z,63.70
2018-08-23T06:52:00.752Z,63.80
2018-08-23T06:53:15.542Z,62.00
2018-08-23T06:54:01.805Z,62.00
2018-08-23T06:55:01.816Z,59.80
2018-08-23T06:56:01.444Z,61.20
2018-08-23T06:57:01.491Z,62.00
2018-08-23T06:58:01.447Z,62.40
2018-08-23T06:59:02.156Z,63.20
2018-08-23T07:00:01.719Z,60.50
2018-08-23T07:01:01.495Z,60.70
2018-08-23T07:02:03.250Z,61.30
2018-08-23T07:03:01.480Z,61.90
2018-08-23T07:04:02.093Z,60.50
2018-08-23T07:05:08.507Z,59.90
2018-08-23T07:06:05.793Z,57.70
2018-08-23T07:07:01.513Z,59.00
2018-08-23T07:08:03.808Z,59.50
2018-08-23T07:09:02.983Z,58.50
2018-08-23T07:10:01.501Z,60.70
2018-08-23T07:11:01.508Z,59.80
2018-08-23T07:12:03.941Z,62.50
2018-08-23T07:13:01.801Z,62.00
2018-08-23T07:14:01.736Z,60.20
2018-08-23T07:15:01.072Z,61.90
2018-08-23T07:16:01.996Z,60.60
2018-08-23T07:17:01.142Z,58.10
2018-08-23T07:18:03.798Z,59.90
2018-08-23T07:19:01.414Z,60.90
2018-08-23T07:20:03.548Z,57.50
2018-08-23T07:21:01.810Z,58.80
2018-08-23T07:22:03.830Z,59.50
2018-08-23T07:23:01.815Z,59.80
2018-08-23T07:24:01.450Z,59.10
2018-08-23T07:25:02.018Z,58.10
2018-08-23T07:26:01.541Z,57.80
2018-08-23T07:27:01.454Z,57.10
2018-08-23T07:28:09.020Z,58.00
2018-08-23T07:29:01.884Z,60.10
2018-08-23T07:30:22.016Z,56.50
2018-08-23T07:31:01.497Z,55.00
2018-08-23T07:32:01.450Z,56.90
2018-08-23T07:33:01.846Z,54.80
2018-08-23T07:34:01.456Z,56.60
2018-08-23T07:35:08.859Z,59.90
2018-08-23T07:36:01.951Z,60.00
2018-08-23T07:37:08.517Z,57.80
2018-08-23T07:38:09.300Z,59.10
2018-08-23T07:39:08.437Z,56.10
2018-08-23T07:40:01.452Z,56.10
2018-08-23T07:41:02.057Z,55.20
2018-08-23T07:42:02.040Z,54.90
2018-08-23T07:43:01.816Z,54.90
2018-08-23T07:44:00.976Z,52.10
2018-08-23T07:45:01.754Z,54.90
2018-08-23T07:46:01.479Z,54.90
2018-08-23T07:47:01.460Z,55.60
2018-08-23T07:48:08.453Z,53.30
2018-08-23T07:49:08.506Z,51.50
2018-08-23T07:50:01.727Z,49.10
2018-08-23T07:51:01.524Z,50.50
2018-08-23T07:52:01.457Z,48.80
2018-08-23T07:53:01.375Z,47.20
2018-08-23T07:54:02.008Z,45.60
2018-08-23T07:55:02.702Z,47.40
2018-08-23T07:56:03.987Z,43.80
2018-08-23T07:57:01.406Z,41.80
2018-08-23T07:58:01.782Z,41.90
2018-08-23T07:59:01.412Z,42.40
2018-08-23T08:00:01.499Z,39.30
2018-08-23T08:01:02.802Z,40.20
2018-08-23T08:02:01.462Z,40.50
2018-08-23T08:03:01.266Z,41.30
2018-08-23T08:04:08.295Z,42.70
2018-08-23T08:05:01.465Z,44.00
2018-08-23T08:06:22.027Z,41.80
2018-08-23T08:07:01.872Z,42.00
2018-08-23T08:08:01.462Z,41.20
2018-08-23T08:09:08.034Z,39.50
2018-08-23T08:10:07.970Z,40.80
2018-08-23T08:11:01.290Z,49.30
2018-08-23T08:12:01.998Z,45.30
2018-08-23T08:13:07.968Z,50.50
2018-08-23T08:14:01.926Z,39.60
2018-08-23T08:15:02.047Z,42.10
2018-08-23T08:16:06.634Z,39.20
2018-08-23T08:17:09.464Z,39.20
2018-08-23T08:18:02.360Z,39.70
2018-08-23T08:19:01.094Z,38.00
2018-08-23T08:20:07.510Z,39.40
2018-08-23T08:21:01.931Z,39.80
2018-08-23T08:22:01.859Z,39.30
2018-08-23T08:23:06.502Z,38.80
2018-08-23T08:24:02.052Z,40.60
2018-08-23T08:25:02.057Z,40.00
2018-08-23T08:26:01.820Z,39.60
2018-08-23T08:27:04.499Z,35.60
2018-08-23T08:28:01.471Z,35.40
2018-08-23T08:29:01.393Z,36.00
2018-08-23T08:30:01.473Z,34.70
2018-08-23T08:31:01.036Z,37.30
2018-08-23T08:33:15.989Z,34.80
2018-08-23T08:34:05.192Z,32.90
2018-08-23T08:35:24.035Z,34.00
2018-08-23T08:36:06.709Z,33.90
2018-08-23T08:37:16.507Z,33.00
2018-08-23T08:38:01.474Z,32.50
2018-08-23T08:39:07.972Z,33.00
2018-08-23T08:40:01.564Z,32.90
2018-08-23T08:42:34.887Z,33.80
2018-08-23T08:43:34.835Z,33.20
2018-08-23T08:45:29.630Z,30.80
2018-08-23T08:46:29.568Z,31.10
2018-08-23T08:48:24.953Z,31.30
2018-08-23T08:49:24.242Z,29.90
2018-08-23T08:51:18.191Z,27.50
2018-08-23T08:52:19.023Z,28.50
2018-08-23T08:54:13.614Z,25.40
2018-08-23T08:55:14.171Z,26.30
2018-08-23T08:57:07.623Z,24.40
2018-08-23T09:00:03.680Z,24.50
2018-08-23T09:01:03.239Z,27.20
2018-08-23T09:02:57.637Z,25.60
2018-08-23T09:03:57.578Z,25.50
2018-08-23T09:05:52.197Z,28.10
2018-08-23T09:06:51.953Z,29.00
2018-08-23T09:08:47.337Z,28.20
2018-08-23T09:09:49.296Z,27.60
2018-08-23T09:11:52.213Z,25.80
2018-08-23T09:12:41.420Z,25.30
2018-08-23T09:14:35.853Z,24.00
2018-08-23T09:15:36.447Z,24.60
2018-08-23T09:17:31.382Z,27.00
2018-08-23T09:18:33.136Z,26.50
2018-08-23T09:20:25.270Z,25.00
2018-08-23T09:21:25.585Z,24.00
2018-08-23T09:23:20.616Z,25.10
2018-08-23T09:24:20.605Z,23.80
2018-08-23T09:26:14.736Z,22.30
2018-08-23T09:27:14.997Z,22.60
2018-08-23T09:28:16.444Z,19.30
2018-08-23T09:29:15.278Z,21.30
2018-08-23T09:30:15.220Z,22.20
2018-08-23T09:31:15.323Z,22.30
2018-08-23T09:32:17.581Z,22.20
2018-08-23T09:33:15.636Z,21.20
2018-08-23T09:34:15.111Z,20.50
2018-08-23T09:35:15.306Z,19.80
2018-08-23T09:36:17.789Z,19.60
2018-08-23T09:37:17.309Z,21.80
2018-08-23T09:38:15.641Z,21.00
2018-08-23T09:39:21.651Z,20.20
2018-08-23T09:40:15.333Z,19.60
2018-08-23T09:41:15.664Z,18.40
2018-08-23T09:42:15.398Z,17.90
2018-08-23T09:43:15.233Z,17.90
2018-08-23T09:44:15.061Z,17.20
2018-08-23T09:45:15.339Z,18.60
2018-08-23T09:46:17.600Z,18.30
2018-08-23T09:47:15.325Z,19.90
2018-08-23T09:48:15.334Z,19.60
2018-08-23T09:49:15.291Z,19.20
2018-08-23T09:50:15.371Z,19.50
2018-08-23T09:51:45.320Z,17.60
2018-08-23T09:52:14.759Z,17.20
2018-08-23T09:53:15.605Z,17.40
2018-08-23T09:54:15.339Z,17.60
2018-08-23T09:55:22.053Z,16.50
2018-08-23T09:56:17.350Z,16.00
2018-08-23T09:57:23.060Z,15.40
2018-08-23T09:58:21.339Z,15.50
2018-08-23T09:59:15.604Z,15.50
2018-08-23T10:00:15.184Z,16.10
2018-08-23T10:01:14.874Z,15.70
2018-08-23T10:02:15.602Z,14.90
2018-08-23T10:03:15.603Z,16.60
2018-08-23T10:04:15.276Z,15.50
2018-08-23T10:05:15.246Z,16.30
2018-08-23T10:06:15.330Z,15.50
2018-08-23T10:07:15.214Z,16.10
2018-08-23T10:08:15.250Z,17.10
2018-08-23T10:09:15.686Z,17.10
2018-08-23T10:10:14.799Z,16.60
2018-08-23T10:11:15.388Z,15.40
2018-08-23T10:12:14.727Z,16.80
2018-08-23T10:13:22.181Z,17.30
2018-08-23T10:14:29.801Z,15.00
2018-08-23T10:15:15.811Z,16.70
2018-08-23T10:16:14.799Z,16.60
2018-08-23T10:17:15.359Z,16.60
2018-08-23T10:18:15.651Z,16.90
2018-08-23T10:19:15.309Z,16.80
2018-08-23T10:20:15.593Z,16.00
2018-08-23T10:21:15.127Z,17.00
2018-08-23T10:22:15.202Z,18.20
2018-08-23T10:23:15.614Z,18.20
2018-08-23T10:24:15.777Z,18.30
2018-08-23T10:25:15.917Z,18.10
2018-08-23T10:26:15.673Z,18.90
2018-08-23T10:27:15.748Z,17.90
2018-08-23T10:28:14.818Z,17.40
2018-08-23T10:29:15.137Z,17.20
2018-08-23T10:30:14.912Z,16.10
2018-08-23T10:31:15.446Z,16.20
2018-08-23T10:32:15.450Z,17.50
2018-08-23T10:33:15.225Z,19.40
2018-08-23T10:34:15.094Z,18.60
2018-08-23T10:38:40.605Z,16.10
2018-08-23T10:40:58.830Z,16.80
2018-08-23T10:43:23.332Z,14.70
2018-08-23T10:44:09.482Z,14.30
2018-08-23T10:46:03.817Z,18.10
2018-08-23T10:47:04.690Z,17.80
2018-08-23T10:49:27.936Z,15.20
2018-08-23T10:49:59.409Z,16.50
2018-08-23T10:51:06.903Z,15.80
2018-08-23T10:52:05.461Z,16.00
2018-08-23T10:53:13.893Z,17.70
2018-08-23T10:53:59.578Z,15.90
2018-08-23T10:54:59.386Z,15.20
2018-08-23T10:56:13.884Z,17.50
2018-08-23T10:56:59.198Z,17.20
2018-08-23T10:57:59.301Z,15.70
2018-08-23T10:58:59.425Z,15.80
2018-08-23T10:59:59.143Z,16.30
2018-08-23T11:01:21.880Z,16.30
2018-08-23T11:01:58.888Z,15.40
2018-08-23T11:02:59.725Z,12.90
2018-08-23T11:03:59.433Z,14.80
2018-08-23T11:04:59.758Z,15.60
2018-08-23T11:05:59.704Z,17.20
2018-08-23T11:06:58.399Z,15.80
2018-08-23T11:09:32.790Z,17.90
2018-08-23T11:11:47.967Z,18.10
2018-08-23T11:12:47.606Z,19.00
2018-08-23T11:14:02.979Z,17.70
2018-08-23T11:14:47.977Z,15.50
2018-08-23T11:15:47.414Z,17.00
2018-08-23T11:16:47.586Z,15.70
2018-08-23T11:17:47.575Z,15.10
2018-08-23T11:18:48.067Z,14.70
2018-08-23T11:19:47.433Z,14.50
2018-08-23T11:20:47.445Z,15.80
2018-08-23T11:21:47.485Z,17.20
2018-08-23T11:22:47.423Z,17.10
2018-08-23T11:23:47.421Z,17.80
2018-08-23T11:24:48.050Z,17.40
2018-08-23T11:25:47.512Z,16.50
2018-08-23T11:26:47.595Z,17.90
2018-08-23T11:27:47.836Z,20.40
2018-08-23T11:28:47.348Z,18.80
2018-08-23T11:29:47.306Z,19.70
2018-08-23T11:30:47.533Z,18.60
2018-08-23T11:31:47.538Z,18.30
2018-08-23T11:32:47.493Z,18.40
2018-08-23T11:33:46.990Z,17.80
2018-08-23T11:34:47.553Z,17.50
2018-08-23T11:35:47.806Z,20.10
2018-08-23T11:36:48.050Z,18.10
2018-08-23T11:37:47.873Z,19.50
2018-08-23T11:38:47.891Z,18.20
2018-08-23T11:39:47.406Z,17.90
2018-08-23T11:40:54.043Z,17.70
2018-08-23T11:41:47.856Z,18.60
2018-08-23T11:42:47.361Z,17.20
2018-08-23T11:43:47.040Z,18.20
2018-08-23T11:44:47.845Z,17.00
2018-08-23T11:45:47.315Z,19.90
2018-08-23T11:46:47.856Z,20.70
2018-08-23T11:47:47.493Z,20.90
2018-08-23T11:48:54.164Z,20.50
2018-08-23T11:49:47.357Z,17.80
2018-08-23T11:50:48.492Z,14.90
2018-08-23T11:52:47.868Z,13.80
2018-08-23T11:53:47.790Z,14.10
2018-08-23T11:54:48.076Z,14.50
2018-08-23T11:55:47.867Z,12.40
2018-08-23T11:56:53.582Z,11.10
2018-08-23T11:57:47.548Z,10.30
2018-08-23T11:58:47.431Z,14.00
2018-08-23T11:59:47.119Z,18.00
2018-08-23T12:00:47.565Z,15.20
2018-08-23T12:01:48.004Z,16.40
2018-08-23T12:02:47.516Z,15.80
2018-08-23T12:03:47.595Z,17.20
2018-08-23T12:04:48.103Z,15.40
2018-08-23T12:05:47.593Z,14.00
2018-08-23T12:07:41.970Z,14.90
2018-08-23T12:08:42.335Z,15.40
2018-08-23T12:10:39.439Z,15.10
2018-08-23T12:11:37.073Z,14.90
2018-08-23T12:13:32.117Z,15.50
2018-08-23T12:14:31.800Z,14.80
2018-08-23T12:16:25.059Z,13.10
2018-08-23T12:17:25.479Z,13.30
2018-08-23T12:19:20.099Z,13.30
2018-08-23T12:20:19.825Z,11.80
2018-08-23T12:22:14.233Z,10.80
2018-08-23T12:23:14.356Z,12.50
2018-08-23T12:25:08.738Z,11.00
2018-08-23T12:26:09.149Z,11.10
2018-08-23T12:28:06.352Z,12.10
2018-08-23T12:29:05.163Z,12.40
2018-08-23T12:30:57.989Z,10.40
2018-08-23T12:31:58.075Z,10.90
2018-08-23T12:33:55.221Z,11.30
2018-08-23T12:36:45.885Z,10.70
2018-08-23T12:37:52.338Z,11.60
2018-08-23T12:38:46.636Z,12.80
2018-08-23T12:39:45.946Z,12.70
2018-08-23T12:40:47.985Z,14.00
2018-08-23T12:41:46.400Z,14.00
2018-08-23T12:42:48.345Z,13.60
2018-08-23T12:43:46.438Z,13.60
2018-08-23T12:44:46.330Z,14.60
2018-08-23T12:45:48.346Z,12.80
2018-08-23T12:46:47.497Z,11.80
2018-08-23T12:48:06.600Z,12.40
2018-08-23T12:48:46.730Z,11.30
2018-08-23T12:49:47.418Z,12.80
2018-08-23T12:50:49.415Z,14.70
2018-08-23T12:51:46.931Z,14.00
2018-08-23T12:52:46.303Z,13.70
2018-08-23T12:53:53.489Z,13.20
2018-08-23T12:54:48.991Z,13.80
2018-08-23T12:55:46.831Z,13.10
2018-08-23T12:56:48.583Z,12.90
2018-08-23T12:57:50.331Z,12.10
2018-08-23T12:58:46.431Z,12.30
2018-08-23T12:59:52.526Z,11.70
2018-08-23T13:00:46.923Z,11.20
2018-08-23T13:01:48.744Z,10.90
2018-08-23T13:02:49.200Z,11.50
2018-08-23T13:03:47.414Z,9.40
2018-08-23T13:04:47.191Z,11.30
2018-08-23T13:05:47.204Z,10.70
2018-08-23T13:06:46.188Z,10.30
2018-08-23T13:07:47.219Z,11.00
2018-08-23T13:08:48.920Z,10.40
2018-08-23T13:09:46.421Z,11.10
2018-08-23T13:10:46.753Z,9.60
2018-08-23T13:11:47.556Z,10.00
2018-08-23T13:12:47.750Z,10.30
2018-08-23T13:13:47.962Z,10.40
2018-08-23T13:14:53.005Z,12.50
2018-08-23T13:16:01.939Z,11.10
2018-08-23T13:16:49.733Z,12.00
2018-08-23T13:17:56.004Z,12.90
2018-08-23T13:18:47.023Z,13.10
2018-08-23T13:19:54.004Z,12.30
2018-08-23T13:20:48.868Z,10.10
2018-08-23T13:21:50.407Z,11.20
2018-08-23T13:22:49.858Z,11.60
2018-08-23T13:23:49.902Z,13.30
2018-08-23T13:24:49.537Z,15.20
2018-08-23T13:25:46.917Z,17.10
2018-08-23T13:26:49.715Z,15.50
2018-08-23T13:27:46.779Z,15.60
2018-08-23T13:28:47.172Z,15.00
2018-08-23T13:29:46.933Z,12.90
2018-08-23T13:30:46.496Z,15.70
2018-08-23T13:31:46.876Z,13.90
2018-08-23T13:32:48.452Z,13.30
2018-08-23T13:33:46.386Z,13.30
2018-08-23T13:34:46.928Z,14.00